sensor_id;sensor_type;location;lat;lon;timestamp;pressure;altitude;pressure_sealevel;temperature;humidity
12146;BME280;6136;47.032;15.398;2022-07-01T00:00:27;97154.44;;;21.99;nan
12146;BME280;6136;47.032;15.398;2022-07-01T00:02:57;97151.91;;;21.98;nan
12146;BME280;6136;47.032;15.398;2022-07-01T00:05:29;97153.06;;;21.95;nan
12146;BME280;6136;47.032;15.398;2022-07-01T00:08:00;97143.97;;;21.96;nan
12146;BME280;6136;47.032;15.398;2022-07-01T00:10:28;97138.94;;;21.93;nan
12146;BME280;6136;47.032;15.398;2022-07-01T00:12:56;97141.78;;;21.92;nan
12146;BME280;6136;47.032;15.398;2022-07-01T00:15:24;97135.56;;;21.91;nan
12146;BME280;6136;47.032;15.398;2022-07-01T00:17:52;97125.94;;;21.89;nan
12146;BME280;6136;47.032;15.398;2022-07-01T00:20:20;97128.81;;;21.87;nan
12146;BME280;6136;47.032;15.398;2022-07-01T00:22:48;97127.31;;;21.85;nan
12146;BME280;6136;47.032;15.398;2022-07-01T00:25:18;97123.78;;;21.84;nan
12146;BME280;6136;47.032;15.398;2022-07-01T00:27:46;97122.94;;;21.84;nan
12146;BME280;6136;47.032;15.398;2022-07-01T00:30:15;97125.16;;;21.80;nan
12146;BME280;6136;47.032;15.398;2022-07-01T00:32:43;97127.38;;;21.77;nan
12146;BME280;6136;47.032;15.398;2022-07-01T00:35:13;97129.56;;;21.73;nan
12146;BME280;6136;47.032;15.398;2022-07-01T00:37:41;97123.53;;;21.71;nan
12146;BME280;6136;47.032;15.398;2022-07-01T00:40:12;97123.84;;;21.68;nan
12146;BME280;6136;47.032;15.398;2022-07-01T00:42:41;97127.56;;;21.67;nan
12146;BME280;6136;47.032;15.398;2022-07-01T00:45:11;97124.56;;;21.62;nan
12146;BME280;6136;47.032;15.398;2022-07-01T00:47:40;97129.97;;;21.62;nan
12146;BME280;6136;47.032;15.398;2022-07-01T00:50:10;97124.91;;;21.59;nan
12146;BME280;6136;47.032;15.398;2022-07-01T00:52:39;97122.22;;;21.59;nan
12146;BME280;6136;47.032;15.398;2022-07-01T00:57:37;97123.91;;;21.52;nan
12146;BME280;6136;47.032;15.398;2022-07-01T01:00:11;97134.72;;;21.52;nan
12146;BME280;6136;47.032;15.398;2022-07-01T01:02:40;97126.78;;;21.50;nan
12146;BME280;6136;47.032;15.398;2022-07-01T01:05:09;97118.06;;;21.48;nan
12146;BME280;6136;47.032;15.398;2022-07-01T01:07:37;97128.00;;;21.48;nan
12146;BME280;6136;47.032;15.398;2022-07-01T01:10:06;97123.78;;;21.45;nan
12146;BME280;6136;47.032;15.398;2022-07-01T01:12:34;97115.38;;;21.40;nan
12146;BME280;6136;47.032;15.398;2022-07-01T01:15:03;97120.09;;;21.38;nan
12146;BME280;6136;47.032;15.398;2022-07-01T01:17:33;97125.66;;;21.37;nan
12146;BME280;6136;47.032;15.398;2022-07-01T01:20:01;97125.66;;;21.37;nan
12146;BME280;6136;47.032;15.398;2022-07-01T01:22:31;97130.03;;;21.38;nan
12146;BME280;6136;47.032;15.398;2022-07-01T01:24:59;97133.56;;;21.38;nan
12146;BME280;6136;47.032;15.398;2022-07-01T01:27:27;97133.91;;;21.35;nan
12146;BME280;6136;47.032;15.398;2022-07-01T01:29:55;97144.03;;;21.33;nan
12146;BME280;6136;47.032;15.398;2022-07-01T01:32:23;97142.53;;;21.30;nan
12146;BME280;6136;47.032;15.398;2022-07-01T01:34:51;97148.94;;;21.29;nan
12146;BME280;6136;47.032;15.398;2022-07-01T01:37:19;97142.84;;;21.27;nan
12146;BME280;6136;47.032;15.398;2022-07-01T01:39:49;97150.31;;;21.25;nan
12146;BME280;6136;47.032;15.398;2022-07-01T01:42:17;97148.25;;;21.27;nan
12146;BME280;6136;47.032;15.398;2022-07-01T01:44:45;97152.16;;;21.25;nan
12146;BME280;6136;47.032;15.398;2022-07-01T01:47:13;97155.19;;;21.22;nan
12146;BME280;6136;47.032;15.398;2022-07-01T01:49:41;97150.31;;;21.17;nan
12146;BME280;6136;47.032;15.398;2022-07-01T01:52:09;97147.63;;;21.17;nan
12146;BME280;6136;47.032;15.398;2022-07-01T01:54:38;97147.63;;;21.17;nan
12146;BME280;6136;47.032;15.398;2022-07-01T01:57:08;97154.69;;;21.18;nan
12146;BME280;6136;47.032;15.398;2022-07-01T01:59:36;97145.56;;;21.19;nan
12146;BME280;6136;47.032;15.398;2022-07-01T02:02:04;97142.38;;;21.16;nan
12146;BME280;6136;47.032;15.398;2022-07-01T02:04:33;97148.09;;;21.13;nan
12146;BME280;6136;47.032;15.398;2022-07-01T02:07:02;97156.69;;;21.08;nan
12146;BME280;6136;47.032;15.398;2022-07-01T02:09:31;97149.44;;;21.09;nan
12146;BME280;6136;47.032;15.398;2022-07-01T02:11:59;97157.00;;;21.05;nan
12146;BME280;6136;47.032;15.398;2022-07-01T02:14:29;97154.69;;;21.02;nan
12146;BME280;6136;47.032;15.398;2022-07-01T02:16:57;97154.00;;;21.00;nan
12146;BME280;6136;47.032;15.398;2022-07-01T02:19:25;97151.16;;;20.93;nan
12146;BME280;6136;47.032;15.398;2022-07-01T02:21:54;97149.63;;;20.91;nan
12146;BME280;6136;47.032;15.398;2022-07-01T02:24:22;97151.00;;;20.87;nan
12146;BME280;6136;47.032;15.398;2022-07-01T02:26:50;97151.31;;;20.84;nan
12146;BME280;6136;47.032;15.398;2022-07-01T02:29:18;97146.78;;;20.84;nan
12146;BME280;6136;47.032;15.398;2022-07-01T02:31:47;97145.44;;;20.80;nan
12146;BME280;6136;47.032;15.398;2022-07-01T02:34:16;97153.69;;;20.79;nan
12146;BME280;6136;47.032;15.398;2022-07-01T02:36:44;97154.00;;;20.76;nan
12146;BME280;6136;47.032;15.398;2022-07-01T02:39:12;97153.69;;;20.71;nan
12146;BME280;6136;47.032;15.398;2022-07-01T02:41:40;97153.00;;;20.69;nan
12146;BME280;6136;47.032;15.398;2022-07-01T02:44:22;97169.16;;;20.69;nan
12146;BME280;6136;47.032;15.398;2022-07-01T02:46:51;97163.13;;;20.67;nan
12146;BME280;6136;47.032;15.398;2022-07-01T02:49:19;97163.28;;;20.65;nan
12146;BME280;6136;47.032;15.398;2022-07-01T02:51:48;97165.28;;;20.63;nan
12146;BME280;6136;47.032;15.398;2022-07-01T02:54:16;97164.13;;;20.66;nan
12146;BME280;6136;47.032;15.398;2022-07-01T02:56:44;97160.75;;;20.64;nan
12146;BME280;6136;47.032;15.398;2022-07-01T02:59:12;97159.06;;;20.63;nan
12146;BME280;6136;47.032;15.398;2022-07-01T03:01:40;97152.00;;;20.62;nan
12146;BME280;6136;47.032;15.398;2022-07-01T03:04:10;97156.53;;;20.61;nan
12146;BME280;6136;47.032;15.398;2022-07-01T03:06:38;97161.44;;;20.58;nan
12146;BME280;6136;47.032;15.398;2022-07-01T03:09:07;97160.06;;;20.53;nan
12146;BME280;6136;47.032;15.398;2022-07-01T03:11:35;97161.09;;;20.52;nan
12146;BME280;6136;47.032;15.398;2022-07-01T03:14:04;97162.44;;;20.48;nan
12146;BME280;6136;47.032;15.398;2022-07-01T03:16:32;97160.75;;;20.47;nan
12146;BME280;6136;47.032;15.398;2022-07-01T03:19:00;97160.06;;;20.53;nan
12146;BME280;6136;47.032;15.398;2022-07-01T03:21:30;97177.75;;;20.56;nan
12146;BME280;6136;47.032;15.398;2022-07-01T03:23:58;97160.91;;;20.54;nan
12146;BME280;6136;47.032;15.398;2022-07-01T03:26:27;97171.19;;;20.50;nan
12146;BME280;6136;47.032;15.398;2022-07-01T03:28:57;97170.34;;;20.50;nan
12146;BME280;6136;47.032;15.398;2022-07-01T03:31:26;97162.44;;;20.48;nan
12146;BME280;6136;47.032;15.398;2022-07-01T03:33:55;97163.28;;;20.49;nan
12146;BME280;6136;47.032;15.398;2022-07-01T03:36:25;97160.06;;;20.53;nan
12146;BME280;6136;47.032;15.398;2022-07-01T03:38:59;97167.81;;;20.57;nan
12146;BME280;6136;47.032;15.398;2022-07-01T03:41:32;97163.13;;;20.59;nan
12146;BME280;6136;47.032;15.398;2022-07-01T03:44:00;97169.16;;;20.61;nan
12146;BME280;6136;47.032;15.398;2022-07-01T03:46:29;97172.38;;;20.64;nan
12146;BME280;6136;47.032;15.398;2022-07-01T03:48:58;97175.38;;;20.69;nan
12146;BME280;6136;47.032;15.398;2022-07-01T03:51:26;97174.22;;;20.72;nan
12146;BME280;6136;47.032;15.398;2022-07-01T03:53:55;97172.53;;;20.71;nan
12146;BME280;6136;47.032;15.398;2022-07-01T03:56:41;97177.25;;;20.77;nan
12146;BME280;6136;47.032;15.398;2022-07-01T03:59:10;97177.75;;;20.80;nan
12146;BME280;6136;47.032;15.398;2022-07-01T04:01:38;97187.34;;;20.83;nan
12146;BME280;6136;47.032;15.398;2022-07-01T04:04:06;97186.34;;;20.84;nan
12146;BME280;6136;47.032;15.398;2022-07-01T04:06:35;97191.88;;;20.90;nan
12146;BME280;6136;47.032;15.398;2022-07-01T04:09:04;97196.44;;;20.98;nan
12146;BME280;6136;47.032;15.398;2022-07-01T04:11:32;97211.09;;;21.04;nan
12146;BME280;6136;47.032;15.398;2022-07-01T04:14:02;97195.41;;;21.07;nan
12146;BME280;6136;47.032;15.398;2022-07-01T04:16:30;97197.44;;;21.13;nan
12146;BME280;6136;47.032;15.398;2022-07-01T04:18:58;97198.09;;;21.15;nan
12146;BME280;6136;47.032;15.398;2022-07-01T04:21:27;97202.84;;;21.21;nan
12146;BME280;6136;47.032;15.398;2022-07-01T04:24:12;97208.22;;;21.29;nan
12146;BME280;6136;47.032;15.398;2022-07-01T04:26:42;97204.84;;;21.36;nan
12146;BME280;6136;47.032;15.398;2022-07-01T04:29:11;97208.03;;;21.39;nan
12146;BME280;6136;47.032;15.398;2022-07-01T04:31:40;97207.53;;;21.44;nan
12146;BME280;6136;47.032;15.398;2022-07-01T04:34:08;97202.47;;;21.49;nan
12146;BME280;6136;47.032;15.398;2022-07-01T04:36:37;97200.78;;;21.56;nan
12146;BME280;6136;47.032;15.398;2022-07-01T04:39:06;97196.16;;;21.64;nan
12146;BME280;6136;47.032;15.398;2022-07-01T04:41:34;97209.13;;;21.77;nan
12146;BME280;6136;47.032;15.398;2022-07-01T04:44:21;97203.72;;;21.85;nan
12146;BME280;6136;47.032;15.398;2022-07-01T04:46:50;97211.78;;;21.93;nan
12146;BME280;6136;47.032;15.398;2022-07-01T04:49:22;97215.47;;;22.00;nan
12146;BME280;6136;47.032;15.398;2022-07-01T04:51:54;97205.28;;;22.11;nan
12146;BME280;6136;47.032;15.398;2022-07-01T04:54:25;97216.72;;;22.21;nan
12146;BME280;6136;47.032;15.398;2022-07-01T04:57:11;97219.53;;;22.35;nan
12146;BME280;6136;47.032;15.398;2022-07-01T04:59:51;97227.31;;;22.53;nan
12146;BME280;6136;47.032;15.398;2022-07-01T05:02:27;97231.78;;;22.69;nan
12146;BME280;6136;47.032;15.398;2022-07-01T05:04:56;97232.28;;;22.72;nan
12146;BME280;6136;47.032;15.398;2022-07-01T05:07:24;97226.53;;;22.75;nan
12146;BME280;6136;47.032;15.398;2022-07-01T05:09:58;97231.53;;;22.87;nan
12146;BME280;6136;47.032;15.398;2022-07-01T05:12:26;97231.47;;;22.95;nan
12146;BME280;6136;47.032;15.398;2022-07-01T05:14:56;97228.34;;;23.06;nan
12146;BME280;6136;47.032;15.398;2022-07-01T05:17:24;97238.00;;;23.23;nan
12146;BME280;6136;47.032;15.398;2022-07-01T05:20:12;97230.53;;;23.25;nan
12146;BME280;6136;47.032;15.398;2022-07-01T05:22:58;97237.19;;;23.37;nan
12146;BME280;6136;47.032;15.398;2022-07-01T05:25:26;97236.44;;;23.43;nan
12146;BME280;6136;47.032;15.398;2022-07-01T05:27:54;97237.94;;;23.46;nan
12146;BME280;6136;47.032;15.398;2022-07-01T05:30:24;97250.03;;;23.58;nan
12146;BME280;6136;47.032;15.398;2022-07-01T05:32:52;97252.47;;;23.68;nan
12146;BME280;6136;47.032;15.398;2022-07-01T05:35:20;97249.28;;;23.79;nan
12146;BME280;6136;47.032;15.398;2022-07-01T05:37:49;97249.84;;;23.74;nan
12146;BME280;6136;47.032;15.398;2022-07-01T05:40:17;97253.41;;;23.89;nan
12146;BME280;6136;47.032;15.398;2022-07-01T05:42:45;97254.44;;;24.03;nan
12146;BME280;6136;47.032;15.398;2022-07-01T05:45:13;97248.56;;;24.14;nan
12146;BME280;6136;47.032;15.398;2022-07-01T05:47:43;97254.53;;;24.24;nan
12146;BME280;6136;47.032;15.398;2022-07-01T05:50:11;97252.03;;;24.38;nan
12146;BME280;6136;47.032;15.398;2022-07-01T05:52:39;97251.88;;;24.46;nan
12146;BME280;6136;47.032;15.398;2022-07-01T05:55:08;97255.91;;;24.50;nan
12146;BME280;6136;47.032;15.398;2022-07-01T05:57:37;97250.13;;;24.53;nan
12146;BME280;6136;47.032;15.398;2022-07-01T06:00:06;97260.47;;;24.64;nan
12146;BME280;6136;47.032;15.398;2022-07-01T06:02:39;97259.44;;;24.65;nan
12146;BME280;6136;47.032;15.398;2022-07-01T06:05:09;97251.97;;;24.67;nan
12146;BME280;6136;47.032;15.398;2022-07-01T06:07:39;97262.59;;;24.68;nan
12146;BME280;6136;47.032;15.398;2022-07-01T06:10:08;97262.34;;;24.85;nan
12146;BME280;6136;47.032;15.398;2022-07-01T06:12:37;97269.28;;;24.87;nan
12146;BME280;6136;47.032;15.398;2022-07-01T06:15:07;97262.31;;;24.99;nan
12146;BME280;6136;47.032;15.398;2022-07-01T06:17:36;97271.25;;;25.14;nan
12146;BME280;6136;47.032;15.398;2022-07-01T06:20:05;97272.28;;;25.13;nan
12146;BME280;6136;47.032;15.398;2022-07-01T06:22:35;97264.19;;;24.99;nan
12146;BME280;6136;47.032;15.398;2022-07-01T06:25:04;97263.22;;;25.06;nan
12146;BME280;6136;47.032;15.398;2022-07-01T06:27:32;97257.31;;;25.18;nan
12146;BME280;6136;47.032;15.398;2022-07-01T06:30:06;97263.22;;;25.28;nan
12146;BME280;6136;47.032;15.398;2022-07-01T06:32:34;97260.44;;;25.42;nan
12146;BME280;6136;47.032;15.398;2022-07-01T06:35:03;97269.16;;;25.59;nan
12146;BME280;6136;47.032;15.398;2022-07-01T06:37:31;97254.41;;;25.68;nan
12146;BME280;6136;47.032;15.398;2022-07-01T06:40:06;97255.66;;;25.94;nan
12146;BME280;6136;47.032;15.398;2022-07-01T06:42:34;97265.91;;;26.33;nan
12146;BME280;6136;47.032;15.398;2022-07-01T06:45:03;97270.16;;;26.48;nan
12146;BME280;6136;47.032;15.398;2022-07-01T06:47:31;97271.25;;;26.60;nan
12146;BME280;6136;47.032;15.398;2022-07-01T06:49:59;97268.97;;;26.71;nan
12146;BME280;6136;47.032;15.398;2022-07-01T06:52:30;97258.94;;;26.64;nan
12146;BME280;6136;47.032;15.398;2022-07-01T06:54:58;97268.63;;;26.87;nan
12146;BME280;6136;47.032;15.398;2022-07-01T06:57:29;97269.97;;;27.04;nan
12146;BME280;6136;47.032;15.398;2022-07-01T06:59:57;97266.22;;;27.18;nan
12146;BME280;6136;47.032;15.398;2022-07-01T07:02:25;97266.44;;;27.36;nan
12146;BME280;6136;47.032;15.398;2022-07-01T07:04:55;97269.59;;;27.40;nan
12146;BME280;6136;47.032;15.398;2022-07-01T07:07:27;97274.00;;;27.48;nan
12146;BME280;6136;47.032;15.398;2022-07-01T07:09:55;97268.97;;;27.64;nan
12146;BME280;6136;47.032;15.398;2022-07-01T07:12:24;97272.56;;;27.78;nan
12146;BME280;6136;47.032;15.398;2022-07-01T07:14:53;97275.28;;;27.78;nan
12146;BME280;6136;47.032;15.398;2022-07-01T07:17:21;97269.38;;;28.01;nan
12146;BME280;6136;47.032;15.398;2022-07-01T07:19:49;97273.13;;;28.06;nan
12146;BME280;6136;47.032;15.398;2022-07-01T07:22:18;97275.84;;;28.19;nan
12146;BME280;6136;47.032;15.398;2022-07-01T07:24:46;97275.84;;;28.19;nan
12146;BME280;6136;47.032;15.398;2022-07-01T07:27:14;97268.03;;;28.43;nan
12146;BME280;6136;47.032;15.398;2022-07-01T07:29:42;97261.72;;;28.49;nan
12146;BME280;6136;47.032;15.398;2022-07-01T07:32:12;97266.50;;;28.60;nan
12146;BME280;6136;47.032;15.398;2022-07-01T07:34:40;97261.47;;;28.57;nan
12146;BME280;6136;47.032;15.398;2022-07-01T07:37:09;97255.94;;;28.70;nan
12146;BME280;6136;47.032;15.398;2022-07-01T07:39:38;97259.72;;;28.76;nan
12146;BME280;6136;47.032;15.398;2022-07-01T07:42:06;97255.63;;;28.98;nan
12146;BME280;6136;47.032;15.398;2022-07-01T07:44:34;97257.41;;;29.17;nan
12146;BME280;6136;47.032;15.398;2022-07-01T07:47:03;97260.22;;;29.36;nan
12146;BME280;6136;47.032;15.398;2022-07-01T07:49:32;97254.97;;;29.34;nan
12146;BME280;6136;47.032;15.398;2022-07-01T07:52:00;97255.06;;;29.52;nan
12146;BME280;6136;47.032;15.398;2022-07-01T07:54:31;97262.84;;;29.73;nan
12146;BME280;6136;47.032;15.398;2022-07-01T07:57:00;97273.72;;;29.80;nan
12146;BME280;6136;47.032;15.398;2022-07-01T07:59:28;97257.41;;;29.73;nan
12146;BME280;6136;47.032;15.398;2022-07-01T08:01:56;97265.47;;;29.93;nan
12146;BME280;6136;47.032;15.398;2022-07-01T08:04:24;97265.25;;;29.88;nan
12146;BME280;6136;47.032;15.398;2022-07-01T08:06:54;97265.00;;;29.96;nan
12146;BME280;6136;47.032;15.398;2022-07-01T08:09:22;97271.69;;;30.19;nan
12146;BME280;6136;47.032;15.398;2022-07-01T08:11:51;97266.66;;;29.97;nan
12146;BME280;6136;47.032;15.398;2022-07-01T08:14:19;97271.91;;;29.99;nan
12146;BME280;6136;47.032;15.398;2022-07-01T08:16:49;97268.88;;;30.25;nan
12146;BME280;6136;47.032;15.398;2022-07-01T08:19:17;97270.09;;;30.47;nan
12146;BME280;6136;47.032;15.398;2022-07-01T08:21:45;97277.75;;;30.64;nan
12146;BME280;6136;47.032;15.398;2022-07-01T08:24:15;97275.09;;;30.57;nan
12146;BME280;6136;47.032;15.398;2022-07-01T08:26:43;97269.66;;;30.69;nan
12146;BME280;6136;47.032;15.398;2022-07-01T08:29:11;97272.88;;;30.66;nan
12146;BME280;6136;47.032;15.398;2022-07-01T08:31:40;97267.41;;;30.66;nan
12146;BME280;6136;47.032;15.398;2022-07-01T08:34:08;97269.97;;;30.79;nan
12146;BME280;6136;47.032;15.398;2022-07-01T08:36:37;97265.53;;;30.96;nan
12146;BME280;6136;47.032;15.398;2022-07-01T08:39:05;97271.50;;;31.35;nan
12146;BME280;6136;47.032;15.398;2022-07-01T08:41:34;97268.78;;;31.35;nan
12146;BME280;6136;47.032;15.398;2022-07-01T08:44:03;97269.16;;;31.50;nan
12146;BME280;6136;47.032;15.398;2022-07-01T08:46:31;97270.72;;;31.57;nan
12146;BME280;6136;47.032;15.398;2022-07-01T08:48:59;97275.69;;;31.90;nan
12146;BME280;6136;47.032;15.398;2022-07-01T08:51:27;97273.56;;;31.92;nan
12146;BME280;6136;47.032;15.398;2022-07-01T08:53:56;97271.03;;;32.03;nan
12146;BME280;6136;47.032;15.398;2022-07-01T08:56:24;97270.69;;;31.76;nan
12146;BME280;6136;47.032;15.398;2022-07-01T08:59:21;97271.66;;;32.05;nan
12146;BME280;6136;47.032;15.398;2022-07-01T09:01:54;97257.94;;;32.28;nan
12146;BME280;6136;47.032;15.398;2022-07-01T09:04:23;97265.81;;;32.13;nan
12146;BME280;6136;47.032;15.398;2022-07-01T09:06:51;97266.91;;;32.23;nan
12146;BME280;6136;47.032;15.398;2022-07-01T09:09:21;97268.44;;;32.19;nan
12146;BME280;6136;47.032;15.398;2022-07-01T09:11:50;97264.13;;;32.12;nan
12146;BME280;6136;47.032;15.398;2022-07-01T09:14:23;97252.81;;;32.08;nan
12146;BME280;6136;47.032;15.398;2022-07-01T09:16:53;97255.91;;;32.35;nan
12146;BME280;6136;47.032;15.398;2022-07-01T09:19:23;97254.19;;;32.69;nan
12146;BME280;6136;47.032;15.398;2022-07-01T09:21:54;97252.75;;;32.66;nan
12146;BME280;6136;47.032;15.398;2022-07-01T09:24:28;97250.81;;;32.79;nan
12146;BME280;6136;47.032;15.398;2022-07-01T09:26:59;97247.13;;;32.61;nan
12146;BME280;6136;47.032;15.398;2022-07-01T09:29:31;97245.25;;;32.73;nan
12146;BME280;6136;47.032;15.398;2022-07-01T09:32:00;97239.06;;;32.95;nan
12146;BME280;6136;47.032;15.398;2022-07-01T09:34:32;97246.81;;;32.98;nan
12146;BME280;6136;47.032;15.398;2022-07-01T09:37:01;97240.44;;;33.09;nan
12146;BME280;6136;47.032;15.398;2022-07-01T09:39:29;97249.19;;;33.34;nan
12146;BME280;6136;47.032;15.398;2022-07-01T09:42:04;97246.03;;;33.59;nan
12146;BME280;6136;47.032;15.398;2022-07-01T09:44:34;97233.94;;;33.43;nan
12146;BME280;6136;47.032;15.398;2022-07-01T09:47:02;97238.31;;;33.73;nan
12146;BME280;6136;47.032;15.398;2022-07-01T09:49:32;97239.44;;;34.10;nan
12146;BME280;6136;47.032;15.398;2022-07-01T09:52:00;97232.63;;;33.96;nan
12146;BME280;6136;47.032;15.398;2022-07-01T09:54:28;97233.41;;;33.75;nan
12146;BME280;6136;47.032;15.398;2022-07-01T09:56:56;97235.47;;;34.01;nan
12146;BME280;6136;47.032;15.398;2022-07-01T09:59:24;97232.53;;;34.08;nan
12146;BME280;6136;47.032;15.398;2022-07-01T10:01:54;97227.22;;;34.01;nan
12146;BME280;6136;47.032;15.398;2022-07-01T10:04:30;97227.84;;;34.25;nan
12146;BME280;6136;47.032;15.398;2022-07-01T10:07:13;97230.41;;;34.32;nan
12146;BME280;6136;47.032;15.398;2022-07-01T10:09:56;97229.22;;;34.66;nan
12146;BME280;6136;47.032;15.398;2022-07-01T10:12:34;97231.13;;;34.65;nan
12146;BME280;6136;47.032;15.398;2022-07-01T10:15:04;97222.88;;;34.87;nan
12146;BME280;6136;47.032;15.398;2022-07-01T10:17:42;97227.81;;;34.85;nan
12146;BME280;6136;47.032;15.398;2022-07-01T10:20:12;97228.59;;;34.59;nan
12146;BME280;6136;47.032;15.398;2022-07-01T10:22:46;97230.88;;;34.67;nan
12146;BME280;6136;47.032;15.398;2022-07-01T10:25:31;97220.91;;;35.10;nan
12146;BME280;6136;47.032;15.398;2022-07-01T10:28:20;97226.22;;;35.16;nan
12146;BME280;6136;47.032;15.398;2022-07-01T10:30:55;97222.59;;;35.11;nan
12146;BME280;6136;47.032;15.398;2022-07-01T10:33:30;97229.25;;;34.71;nan
12146;BME280;6136;47.032;15.398;2022-07-01T10:36:09;97229.75;;;35.12;nan
12146;BME280;6136;47.032;15.398;2022-07-01T10:39:15;97225.97;;;35.18;nan
12146;BME280;6136;47.032;15.398;2022-07-01T10:42:00;97235.00;;;34.86;nan
12146;BME280;6136;47.032;15.398;2022-07-01T10:45:05;97227.81;;;34.85;nan
12146;BME280;6136;47.032;15.398;2022-07-01T10:47:34;97226.78;;;35.18;nan
12146;BME280;6136;47.032;15.398;2022-07-01T10:50:09;97229.31;;;35.20;nan
12146;BME280;6136;47.032;15.398;2022-07-01T10:52:37;97228.13;;;35.42;nan
12146;BME280;6136;47.032;15.398;2022-07-01T10:55:07;97227.50;;;35.62;nan
12146;BME280;6136;47.032;15.398;2022-07-01T10:57:40;97227.34;;;35.42;nan
12146;BME280;6136;47.032;15.398;2022-07-01T11:00:32;97220.88;;;35.04;nan
12146;BME280;6136;47.032;15.398;2022-07-01T11:03:19;97219.94;;;35.48;nan
12146;BME280;6136;47.032;15.398;2022-07-01T11:05:51;97214.19;;;35.54;nan
12146;BME280;6136;47.032;15.398;2022-07-01T11:08:20;97218.31;;;35.84;nan
12146;BME280;6136;47.032;15.398;2022-07-01T11:10:57;97212.19;;;36.13;nan
12146;BME280;6136;47.032;15.398;2022-07-01T11:13:28;97217.19;;;35.79;nan
12146;BME280;6136;47.032;15.398;2022-07-01T11:15:57;97209.53;;;35.87;nan
12146;BME280;6136;47.032;15.398;2022-07-01T11:18:25;97202.22;;;36.12;nan
12146;BME280;6136;47.032;15.398;2022-07-01T11:21:04;97196.25;;;36.26;nan
12146;BME280;6136;47.032;15.398;2022-07-01T11:23:33;97193.97;;;36.65;nan
12146;BME280;6136;47.032;15.398;2022-07-01T11:26:06;97198.41;;;36.66;nan
12146;BME280;6136;47.032;15.398;2022-07-01T11:28:40;97194.91;;;36.90;nan
12146;BME280;6136;47.032;15.398;2022-07-01T11:31:08;97190.63;;;36.63;nan
12146;BME280;6136;47.032;15.398;2022-07-01T11:33:37;97187.38;;;36.76;nan
12146;BME280;6136;47.032;15.398;2022-07-01T11:36:07;97183.06;;;37.05;nan
12146;BME280;6136;47.032;15.398;2022-07-01T11:38:54;97187.19;;;37.08;nan
12146;BME280;6136;47.032;15.398;2022-07-01T11:41:39;97187.19;;;37.03;nan
12146;BME280;6136;47.032;15.398;2022-07-01T11:44:08;97180.69;;;36.62;nan
12146;BME280;6136;47.032;15.398;2022-07-01T11:46:36;97171.63;;;36.66;nan
12146;BME280;6136;47.032;15.398;2022-07-01T11:49:11;97162.81;;;36.84;nan
12146;BME280;6136;47.032;15.398;2022-07-01T11:51:41;97165.91;;;37.03;nan
12146;BME280;6136;47.032;15.398;2022-07-01T11:54:19;97172.06;;;35.96;nan
12146;BME280;6136;47.032;15.398;2022-07-01T11:56:49;97174.78;;;35.91;nan
12146;BME280;6136;47.032;15.398;2022-07-01T11:59:18;97181.41;;;35.90;nan
12146;BME280;6136;47.032;15.398;2022-07-01T12:01:53;97180.19;;;35.70;nan
12146;BME280;6136;47.032;15.398;2022-07-01T12:04:22;97174.81;;;35.96;nan
12146;BME280;6136;47.032;15.398;2022-07-01T12:06:52;97168.47;;;36.47;nan
12146;BME280;6136;47.032;15.398;2022-07-01T12:09:20;97177.00;;;36.41;nan
12146;BME280;6136;47.032;15.398;2022-07-01T12:11:50;97166.09;;;36.14;nan
12146;BME280;6136;47.032;15.398;2022-07-01T12:14:20;97183.47;;;35.72;nan
12146;BME280;6136;47.032;15.398;2022-07-01T12:16:51;97170.69;;;35.61;nan
12146;BME280;6136;47.032;15.398;2022-07-01T12:19:20;97168.44;;;35.85;nan
12146;BME280;6136;47.032;15.398;2022-07-01T12:21:56;97168.69;;;35.84;nan
12146;BME280;6136;47.032;15.398;2022-07-01T12:24:25;97158.63;;;35.67;nan
12146;BME280;6136;47.032;15.398;2022-07-01T12:27:02;97163.06;;;35.36;nan
12146;BME280;6136;47.032;15.398;2022-07-01T12:29:48;97158.22;;;35.86;nan
12146;BME280;6136;47.032;15.398;2022-07-01T12:32:18;97152.72;;;35.91;nan
12146;BME280;6136;47.032;15.398;2022-07-01T12:34:51;97152.41;;;35.87;nan
12146;BME280;6136;47.032;15.398;2022-07-01T12:37:28;97149.78;;;36.07;nan
12146;BME280;6136;47.032;15.398;2022-07-01T12:39:58;97154.97;;;35.94;nan
12146;BME280;6136;47.032;15.398;2022-07-01T12:42:28;97162.44;;;35.29;nan
12146;BME280;6136;47.032;15.398;2022-07-01T12:44:59;97155.59;;;35.32;nan
12146;BME280;6136;47.032;15.398;2022-07-01T12:47:28;97145.19;;;35.12;nan
12146;BME280;6136;47.032;15.398;2022-07-01T12:50:15;97149.97;;;35.22;nan
12146;BME280;6136;47.032;15.398;2022-07-01T12:52:57;97157.03;;;35.39;nan
12146;BME280;6136;47.032;15.398;2022-07-01T12:55:26;97152.81;;;35.27;nan
12146;BME280;6136;47.032;15.398;2022-07-01T12:57:56;97149.16;;;35.58;nan
12146;BME280;6136;47.032;15.398;2022-07-01T13:00:28;97146.84;;;35.77;nan
12146;BME280;6136;47.032;15.398;2022-07-01T13:02:57;97152.13;;;35.84;nan
12146;BME280;6136;47.032;15.398;2022-07-01T13:05:27;97142.59;;;36.01;nan
12146;BME280;6136;47.032;15.398;2022-07-01T13:07:56;97142.94;;;36.15;nan
12146;BME280;6136;47.032;15.398;2022-07-01T13:10:25;97150.81;;;35.91;nan
12146;BME280;6136;47.032;15.398;2022-07-01T13:12:53;97140.78;;;35.43;nan
12146;BME280;6136;47.032;15.398;2022-07-01T13:15:21;97138.44;;;35.25;nan
12146;BME280;6136;47.032;15.398;2022-07-01T13:17:50;97136.38;;;35.42;nan
12146;BME280;6136;47.032;15.398;2022-07-01T13:20:19;97124.53;;;35.78;nan
12146;BME280;6136;47.032;15.398;2022-07-01T13:22:47;97121.81;;;35.84;nan
12146;BME280;6136;47.032;15.398;2022-07-01T13:25:17;97130.06;;;35.78;nan
12146;BME280;6136;47.032;15.398;2022-07-01T13:27:45;97127.00;;;35.43;nan
12146;BME280;6136;47.032;15.398;2022-07-01T13:30:14;97122.53;;;35.32;nan
12146;BME280;6136;47.032;15.398;2022-07-01T13:32:42;97115.56;;;35.61;nan
12146;BME280;6136;47.032;15.398;2022-07-01T13:35:12;97105.75;;;35.70;nan
12146;BME280;6136;47.032;15.398;2022-07-01T13:37:41;97109.97;;;35.51;nan
12146;BME280;6136;47.032;15.398;2022-07-01T13:40:10;97112.56;;;35.26;nan
12146;BME280;6136;47.032;15.398;2022-07-01T13:42:39;97113.31;;;35.53;nan